Cambridge, Maryland
Current Conditions -  °F | °C
As of 5:35 PM on Friday 31 Oct 2014 (Local Time) from KCGE Reporting Station
Clear Clear  
Wind Chill: 55°   Ceiling: Unl
Heat Index: 55°   Visibility: 10mi
Dew Point: 36°   Wind: 5mph
Humidity: 47%   Direction: 350°N
Pressure: 29.85"   Gusts: NA
Location:  38.56°N, 76.08°W
Report Text: KCGE 312135Z AUTO 35004KT 10SM CLR 13/02 A2985 RMK AO1
Loading
Personal Weather Stations






























Interactive Weather Map
Tropical Storm Tracking
New forecast layout! Learn more

10-Day Weather Forecast

Advertisements
Track Severe Weather on mobile